sensor_id;sensor_type;location;lat;lon;timestamp;pressure;altitude;pressure_sealevel;temperature;humidity
70971;BME280;58632;51.718;19.446;2023-02-14T00:01:54;101283.59;;;3.68;100.00
70971;BME280;58632;51.718;19.446;2023-02-14T00:04:20;101282.73;;;3.67;100.00
70971;BME280;58632;51.718;19.446;2023-02-14T00:06:46;101284.17;;;3.66;100.00
70971;BME280;58632;51.718;19.446;2023-02-14T00:09:13;101282.84;;;3.68;100.00
70971;BME280;58632;51.718;19.446;2023-02-14T00:11:38;101283.66;;;3.68;100.00
70971;BME280;58632;51.718;19.446;2023-02-14T00:14:05;101278.58;;;3.69;100.00
70971;BME280;58632;51.718;19.446;2023-02-14T00:16:49;101283.48;;;3.70;100.00
70971;BME280;58632;51.718;19.446;2023-02-14T00:19:15;101281.64;;;3.70;100.00
70971;BME280;58632;51.718;19.446;2023-02-14T00:21:41;101282.05;;;3.68;100.00
70971;BME280;58632;51.718;19.446;2023-02-14T00:24:08;101277.25;;;3.67;100.00
70971;BME280;58632;51.718;19.446;2023-02-14T00:26:34;101275.90;;;3.67;100.00
70971;BME280;58632;51.718;19.446;2023-02-14T00:29:03;101276.77;;;3.68;100.00
70971;BME280;58632;51.718;19.446;2023-02-14T00:31:28;101272.95;;;3.69;100.00
70971;BME280;58632;51.718;19.446;2023-02-14T00:33:57;101271.42;;;3.68;100.00
70971;BME280;58632;51.718;19.446;2023-02-14T00:36:22;101273.59;;;3.66;100.00
70971;BME280;58632;51.718;19.446;2023-02-14T00:38:48;101276.19;;;3.63;100.00
70971;BME280;58632;51.718;19.446;2023-02-14T00:41:13;101277.10;;;3.63;100.00
70971;BME280;58632;51.718;19.446;2023-02-14T00:43:50;101281.23;;;3.63;100.00
70971;BME280;58632;51.718;19.446;2023-02-14T00:46:16;101277.91;;;3.63;100.00
70971;BME280;58632;51.718;19.446;2023-02-14T00:48:42;101277.56;;;3.61;100.00
70971;BME280;58632;51.718;19.446;2023-02-14T00:51:08;101278.80;;;3.59;100.00
70971;BME280;58632;51.718;19.446;2023-02-14T00:53:34;101275.65;;;3.58;100.00
70971;BME280;58632;51.718;19.446;2023-02-14T00:56:00;101277.12;;;3.58;100.00
70971;BME280;58632;51.718;19.446;2023-02-14T00:58:25;101277.67;;;3.59;100.00
70971;BME280;58632;51.718;19.446;2023-02-14T01:00:51;101280.45;;;3.60;100.00
70971;BME280;58632;51.718;19.446;2023-02-14T01:03:17;101283.36;;;3.61;100.00
70971;BME280;58632;51.718;19.446;2023-02-14T01:05:42;101276.15;;;3.59;100.00
70971;BME280;58632;51.718;19.446;2023-02-14T01:08:08;101275.42;;;3.57;100.00
70971;BME280;58632;51.718;19.446;2023-02-14T01:10:35;101278.40;;;3.57;100.00
70971;BME280;58632;51.718;19.446;2023-02-14T01:13:00;101278.40;;;3.57;100.00
70971;BME280;58632;51.718;19.446;2023-02-14T01:15:26;101280.31;;;3.58;100.00
70971;BME280;58632;51.718;19.446;2023-02-14T01:17:52;101280.69;;;3.58;100.00
70971;BME280;58632;51.718;19.446;2023-02-14T01:20:17;101281.44;;;3.57;100.00
70971;BME280;58632;51.718;19.446;2023-02-14T01:22:43;101273.78;;;3.57;100.00
70971;BME280;58632;51.718;19.446;2023-02-14T01:25:08;101272.84;;;3.55;100.00
70971;BME280;58632;51.718;19.446;2023-02-14T01:27:34;101268.81;;;3.57;100.00
70971;BME280;58632;51.718;19.446;2023-02-14T01:30:00;101269.48;;;3.58;100.00
70971;BME280;58632;51.718;19.446;2023-02-14T01:32:25;101265.10;;;3.59;100.00
70971;BME280;58632;51.718;19.446;2023-02-14T01:34:54;101262.85;;;3.57;100.00
70971;BME280;58632;51.718;19.446;2023-02-14T01:37:20;101260.94;;;3.56;100.00
70971;BME280;58632;51.718;19.446;2023-02-14T01:39:45;101263.75;;;3.56;100.00
70971;BME280;58632;51.718;19.446;2023-02-14T01:42:11;101266.82;;;3.58;100.00
70971;BME280;58632;51.718;19.446;2023-02-14T01:47:04;101261.08;;;3.60;100.00
70971;BME280;58632;51.718;19.446;2023-02-14T01:49:31;101257.09;;;3.59;100.00
70971;BME280;58632;51.718;19.446;2023-02-14T01:52:05;101253.51;;;3.59;100.00
70971;BME280;58632;51.718;19.446;2023-02-14T01:54:33;101253.65;;;3.58;100.00
70971;BME280;58632;51.718;19.446;2023-02-14T01:57:01;101247.73;;;3.59;100.00
70971;BME280;58632;51.718;19.446;2023-02-14T01:59:30;101247.32;;;3.60;100.00
70971;BME280;58632;51.718;19.446;2023-02-14T02:01:58;101247.77;;;3.61;100.00
70971;BME280;58632;51.718;19.446;2023-02-14T02:04:57;101249.74;;;3.60;100.00
70971;BME280;58632;51.718;19.446;2023-02-14T02:07:22;101246.64;;;3.59;100.00
70971;BME280;58632;51.718;19.446;2023-02-14T02:09:58;101248.98;;;3.59;100.00
70971;BME280;58632;51.718;19.446;2023-02-14T02:12:24;101246.80;;;3.62;100.00
70971;BME280;58632;51.718;19.446;2023-02-14T02:14:51;101249.61;;;3.65;100.00
70971;BME280;58632;51.718;19.446;2023-02-14T02:33:17;101251.52;;;3.64;100.00
70971;BME280;58632;51.718;19.446;2023-02-14T02:46:20;101256.41;;;3.66;100.00
70971;BME280;58632;51.718;19.446;2023-02-14T02:55:19;101260.14;;;3.68;100.00
70971;BME280;58632;51.718;19.446;2023-02-14T02:57:48;101269.20;;;3.68;100.00
70971;BME280;58632;51.718;19.446;2023-02-14T03:00:15;101265.58;;;3.69;100.00
70971;BME280;58632;51.718;19.446;2023-02-14T03:02:43;101269.41;;;3.68;100.00
70971;BME280;58632;51.718;19.446;2023-02-14T03:05:30;101265.64;;;3.66;100.00
70971;BME280;58632;51.718;19.446;2023-02-14T03:07:56;101267.43;;;3.64;100.00
70971;BME280;58632;51.718;19.446;2023-02-14T03:10:23;101275.06;;;3.63;100.00
70971;BME280;58632;51.718;19.446;2023-02-14T03:17:56;101274.38;;;3.64;100.00
70971;BME280;58632;51.718;19.446;2023-02-14T03:20:23;101268.48;;;3.63;100.00
70971;BME280;58632;51.718;19.446;2023-02-14T03:31:26;101280.92;;;3.64;100.00
70971;BME280;58632;51.718;19.446;2023-02-14T03:33:35;101284.34;;;3.64;100.00
70971;BME280;58632;51.718;19.446;2023-02-14T03:36:12;101289.38;;;3.65;100.00
70971;BME280;58632;51.718;19.446;2023-02-14T03:41:27;101283.51;;;3.60;100.00
70971;BME280;58632;51.718;19.446;2023-02-14T03:43:55;101288.56;;;3.59;100.00
70971;BME280;58632;51.718;19.446;2023-02-14T03:47:05;101292.73;;;3.59;100.00
70971;BME280;58632;51.718;19.446;2023-02-14T03:49:11;101301.52;;;3.55;100.00
70971;BME280;58632;51.718;19.446;2023-02-14T03:51:38;101299.13;;;3.51;100.00
70971;BME280;58632;51.718;19.446;2023-02-14T03:54:05;101302.73;;;3.50;100.00
70971;BME280;58632;51.718;19.446;2023-02-14T03:58:57;101296.84;;;3.50;100.00
70971;BME280;58632;51.718;19.446;2023-02-14T04:01:29;101299.20;;;3.50;100.00
70971;BME280;58632;51.718;19.446;2023-02-14T04:03:57;101300.72;;;3.49;100.00
70971;BME280;58632;51.718;19.446;2023-02-14T04:06:23;101294.30;;;3.47;100.00
70971;BME280;58632;51.718;19.446;2023-02-14T04:08:49;101296.02;;;3.43;100.00
70971;BME280;58632;51.718;19.446;2023-02-14T04:11:15;101298.09;;;3.41;100.00
70971;BME280;58632;51.718;19.446;2023-02-14T04:13:41;101301.63;;;3.40;100.00
70971;BME280;58632;51.718;19.446;2023-02-14T04:16:06;101289.27;;;3.38;100.00
70971;BME280;58632;51.718;19.446;2023-02-14T04:18:32;101290.18;;;3.38;100.00
70971;BME280;58632;51.718;19.446;2023-02-14T04:21:17;101291.27;;;3.35;100.00
70971;BME280;58632;51.718;19.446;2023-02-14T04:23:42;101295.27;;;3.35;100.00
70971;BME280;58632;51.718;19.446;2023-02-14T04:26:08;101302.88;;;3.34;100.00
70971;BME280;58632;51.718;19.446;2023-02-14T04:28:34;101298.48;;;3.33;100.00
70971;BME280;58632;51.718;19.446;2023-02-14T04:31:00;101298.61;;;3.32;100.00
70971;BME280;58632;51.718;19.446;2023-02-14T04:33:26;101304.75;;;3.34;100.00
70971;BME280;58632;51.718;19.446;2023-02-14T04:35:51;101304.38;;;3.31;100.00
70971;BME280;58632;51.718;19.446;2023-02-14T04:38:16;101308.05;;;3.29;100.00
70971;BME280;58632;51.718;19.446;2023-02-14T04:40:42;101307.47;;;3.27;100.00
70971;BME280;58632;51.718;19.446;2023-02-14T04:43:08;101306.48;;;3.28;100.00
70971;BME280;58632;51.718;19.446;2023-02-14T04:45:33;101311.38;;;3.29;100.00
70971;BME280;58632;51.718;19.446;2023-02-14T04:47:59;101310.77;;;3.31;100.00
70971;BME280;58632;51.718;19.446;2023-02-14T04:50:24;101311.98;;;3.30;100.00
70971;BME280;58632;51.718;19.446;2023-02-14T04:52:50;101307.23;;;3.28;100.00
70971;BME280;58632;51.718;19.446;2023-02-14T04:55:16;101312.95;;;3.25;100.00
70971;BME280;58632;51.718;19.446;2023-02-14T04:57:42;101314.81;;;3.23;100.00
70971;BME280;58632;51.718;19.446;2023-02-14T05:00:08;101315.98;;;3.23;100.00
70971;BME280;58632;51.718;19.446;2023-02-14T05:02:34;101314.37;;;3.21;100.00
70971;BME280;58632;51.718;19.446;2023-02-14T05:04:59;101314.58;;;3.15;100.00
70971;BME280;58632;51.718;19.446;2023-02-14T05:07:25;101313.18;;;3.12;100.00
70971;BME280;58632;51.718;19.446;2023-02-14T05:09:51;101310.84;;;3.08;100.00
70971;BME280;58632;51.718;19.446;2023-02-14T05:12:16;101320.48;;;3.06;100.00
70971;BME280;58632;51.718;19.446;2023-02-14T05:14:42;101311.76;;;3.06;100.00
70971;BME280;58632;51.718;19.446;2023-02-14T05:17:07;101305.25;;;3.06;100.00
70971;BME280;58632;51.718;19.446;2023-02-14T05:19:33;101301.20;;;3.04;100.00
70971;BME280;58632;51.718;19.446;2023-02-14T05:21:59;101302.83;;;3.02;100.00
70971;BME280;58632;51.718;19.446;2023-02-14T05:24:24;101303.53;;;3.00;100.00
70971;BME280;58632;51.718;19.446;2023-02-14T05:26:50;101305.67;;;2.98;100.00
70971;BME280;58632;51.718;19.446;2023-02-14T05:29:15;101311.20;;;2.99;100.00
70971;BME280;58632;51.718;19.446;2023-02-14T05:31:41;101303.63;;;2.99;100.00
70971;BME280;58632;51.718;19.446;2023-02-14T05:34:06;101302.20;;;2.97;100.00
70971;BME280;58632;51.718;19.446;2023-02-14T05:36:32;101307.06;;;2.95;100.00
70971;BME280;58632;51.718;19.446;2023-02-14T05:38:58;101316.71;;;2.95;100.00
70971;BME280;58632;51.718;19.446;2023-02-14T05:41:23;101319.96;;;2.95;100.00
70971;BME280;58632;51.718;19.446;2023-02-14T05:43:49;101318.00;;;2.98;100.00
70971;BME280;58632;51.718;19.446;2023-02-14T05:46:15;101322.28;;;2.98;100.00
70971;BME280;58632;51.718;19.446;2023-02-14T05:48:40;101321.91;;;2.98;100.00
70971;BME280;58632;51.718;19.446;2023-02-14T05:51:07;101322.77;;;2.99;100.00
70971;BME280;58632;51.718;19.446;2023-02-14T05:53:33;101325.16;;;2.98;100.00
70971;BME280;58632;51.718;19.446;2023-02-14T05:55:58;101321.00;;;3.01;100.00
70971;BME280;58632;51.718;19.446;2023-02-14T05:58:24;101325.34;;;3.04;100.00
70971;BME280;58632;51.718;19.446;2023-02-14T06:00:50;101335.09;;;3.06;100.00
70971;BME280;58632;51.718;19.446;2023-02-14T06:03:15;101332.92;;;3.07;100.00
70971;BME280;58632;51.718;19.446;2023-02-14T06:05:41;101332.10;;;3.06;100.00
70971;BME280;58632;51.718;19.446;2023-02-14T06:08:07;101331.84;;;3.04;100.00
70971;BME280;58632;51.718;19.446;2023-02-14T06:10:32;101336.45;;;3.02;100.00
70971;BME280;58632;51.718;19.446;2023-02-14T06:12:58;101336.25;;;3.03;100.00
70971;BME280;58632;51.718;19.446;2023-02-14T06:15:23;101338.36;;;3.03;100.00
70971;BME280;58632;51.718;19.446;2023-02-14T06:17:50;101342.34;;;3.04;100.00
70971;BME280;58632;51.718;19.446;2023-02-14T06:20:15;101347.75;;;3.04;100.00
70971;BME280;58632;51.718;19.446;2023-02-14T06:22:41;101349.75;;;3.04;100.00
70971;BME280;58632;51.718;19.446;2023-02-14T06:25:06;101351.59;;;3.04;100.00
70971;BME280;58632;51.718;19.446;2023-02-14T06:27:32;101351.64;;;3.03;100.00
70971;BME280;58632;51.718;19.446;2023-02-14T06:29:58;101350.73;;;3.04;100.00
70971;BME280;58632;51.718;19.446;2023-02-14T06:32:23;101349.85;;;3.03;100.00
70971;BME280;58632;51.718;19.446;2023-02-14T06:34:49;101349.66;;;3.05;100.00
70971;BME280;58632;51.718;19.446;2023-02-14T06:37:15;101351.55;;;3.05;100.00
70971;BME280;58632;51.718;19.446;2023-02-14T06:39:40;101364.42;;;3.04;100.00
70971;BME280;58632;51.718;19.446;2023-02-14T06:42:06;101358.15;;;3.04;100.00
70971;BME280;58632;51.718;19.446;2023-02-14T06:44:32;101353.15;;;3.05;100.00
70971;BME280;58632;51.718;19.446;2023-02-14T06:46:57;101362.47;;;3.06;100.00
70971;BME280;58632;51.718;19.446;2023-02-14T06:49:23;101368.91;;;3.10;100.00
70971;BME280;58632;51.718;19.446;2023-02-14T06:51:49;101359.55;;;3.13;100.00
70971;BME280;58632;51.718;19.446;2023-02-14T06:54:14;101361.44;;;3.10;100.00
70971;BME280;58632;51.718;19.446;2023-02-14T06:56:40;101363.98;;;3.08;100.00
70971;BME280;58632;51.718;19.446;2023-02-14T06:59:06;101372.05;;;3.06;100.00
70971;BME280;58632;51.718;19.446;2023-02-14T07:01:31;101371.08;;;3.06;100.00
70971;BME280;58632;51.718;19.446;2023-02-14T07:03:57;101376.79;;;3.09;100.00
70971;BME280;58632;51.718;19.446;2023-02-14T07:06:23;101378.09;;;3.13;100.00
70971;BME280;58632;51.718;19.446;2023-02-14T07:08:48;101378.23;;;3.15;100.00
70971;BME280;58632;51.718;19.446;2023-02-14T07:11:14;101380.74;;;3.16;100.00
70971;BME280;58632;51.718;19.446;2023-02-14T07:13:40;101388.98;;;3.14;100.00
70971;BME280;58632;51.718;19.446;2023-02-14T07:16:08;101386.90;;;3.13;100.00
70971;BME280;58632;51.718;19.446;2023-02-14T07:18:33;101391.22;;;3.12;100.00
70971;BME280;58632;51.718;19.446;2023-02-14T07:20:59;101392.70;;;3.11;100.00
70971;BME280;58632;51.718;19.446;2023-02-14T07:23:25;101393.02;;;3.11;100.00
70971;BME280;58632;51.718;19.446;2023-02-14T07:25:50;101390.20;;;3.11;100.00
70971;BME280;58632;51.718;19.446;2023-02-14T07:28:16;101390.89;;;3.12;100.00
70971;BME280;58632;51.718;19.446;2023-02-14T07:30:41;101389.83;;;3.15;100.00
70971;BME280;58632;51.718;19.446;2023-02-14T07:33:07;101394.27;;;3.17;100.00
70971;BME280;58632;51.718;19.446;2023-02-14T07:35:32;101394.77;;;3.22;100.00
70971;BME280;58632;51.718;19.446;2023-02-14T07:37:59;101392.36;;;3.28;100.00
70971;BME280;58632;51.718;19.446;2023-02-14T07:40:25;101389.02;;;3.36;100.00
70971;BME280;58632;51.718;19.446;2023-02-14T07:42:53;101390.88;;;3.39;100.00
70971;BME280;58632;51.718;19.446;2023-02-14T07:45:20;101391.02;;;3.41;100.00
70971;BME280;58632;51.718;19.446;2023-02-14T07:47:49;101388.11;;;3.41;100.00
70971;BME280;58632;51.718;19.446;2023-02-14T07:50:16;101385.64;;;3.44;100.00
70971;BME280;58632;51.718;19.446;2023-02-14T07:52:41;101388.80;;;3.47;100.00
70971;BME280;58632;51.718;19.446;2023-02-14T07:55:07;101386.24;;;3.52;100.00
70971;BME280;58632;51.718;19.446;2023-02-14T07:57:33;101386.04;;;3.57;100.00
70971;BME280;58632;51.718;19.446;2023-02-14T07:59:58;101387.65;;;3.61;100.00
70971;BME280;58632;51.718;19.446;2023-02-14T08:02:24;101387.94;;;3.65;100.00
70971;BME280;58632;51.718;19.446;2023-02-14T08:04:49;101389.98;;;3.69;100.00
70971;BME280;58632;51.718;19.446;2023-02-14T08:07:15;101387.16;;;3.75;100.00
70971;BME280;58632;51.718;19.446;2023-02-14T08:09:41;101392.95;;;3.80;100.00
70971;BME280;58632;51.718;19.446;2023-02-14T08:12:08;101395.15;;;3.80;100.00
70971;BME280;58632;51.718;19.446;2023-02-14T08:14:52;101400.88;;;3.81;100.00
70971;BME280;58632;51.718;19.446;2023-02-14T08:17:18;101405.08;;;3.85;100.00
70971;BME280;58632;51.718;19.446;2023-02-14T08:19:43;101405.00;;;3.84;100.00
70971;BME280;58632;51.718;19.446;2023-02-14T08:22:09;101404.37;;;3.85;100.00
70971;BME280;58632;51.718;19.446;2023-02-14T08:24:35;101417.16;;;3.87;100.00
70971;BME280;58632;51.718;19.446;2023-02-14T08:27:00;101416.34;;;3.94;100.00
70971;BME280;58632;51.718;19.446;2023-02-14T08:29:26;101409.44;;;3.98;100.00
70971;BME280;58632;51.718;19.446;2023-02-14T08:31:52;101402.13;;;4.04;100.00
70971;BME280;58632;51.718;19.446;2023-02-14T08:34:18;101406.61;;;4.11;100.00
70971;BME280;58632;51.718;19.446;2023-02-14T08:36:44;101410.63;;;4.16;100.00
70971;BME280;58632;51.718;19.446;2023-02-14T08:39:09;101412.54;;;4.19;100.00
70971;BME280;58632;51.718;19.446;2023-02-14T08:41:35;101408.20;;;4.24;100.00
70971;BME280;58632;51.718;19.446;2023-02-14T08:44:01;101405.67;;;4.26;100.00
70971;BME280;58632;51.718;19.446;2023-02-14T08:46:26;101411.15;;;4.26;100.00
70971;BME280;58632;51.718;19.446;2023-02-14T08:48:52;101418.58;;;4.26;100.00
70971;BME280;58632;51.718;19.446;2023-02-14T08:51:19;101417.29;;;4.29;100.00
70971;BME280;58632;51.718;19.446;2023-02-14T08:53:44;101419.81;;;4.33;100.00
70971;BME280;58632;51.718;19.446;2023-02-14T08:56:13;101422.04;;;4.34;100.00
70971;BME280;58632;51.718;19.446;2023-02-14T08:58:39;101429.86;;;4.32;100.00
70971;BME280;58632;51.718;19.446;2023-02-14T09:01:08;101431.59;;;4.34;100.00
70971;BME280;58632;51.718;19.446;2023-02-14T09:03:33;101423.33;;;4.38;100.00
70971;BME280;58632;51.718;19.446;2023-02-14T09:06:02;101421.85;;;4.37;100.00
70971;BME280;58632;51.718;19.446;2023-02-14T09:08:28;101434.30;;;4.36;100.00
70971;BME280;58632;51.718;19.446;2023-02-14T09:10:55;101444.02;;;4.36;100.00
70971;BME280;58632;51.718;19.446;2023-02-14T09:13:20;101439.66;;;4.38;100.00
70971;BME280;58632;51.718;19.446;2023-02-14T09:15:46;101433.59;;;4.38;100.00
70971;BME280;58632;51.718;19.446;2023-02-14T09:18:12;101435.44;;;4.42;100.00
70971;BME280;58632;51.718;19.446;2023-02-14T09:20:38;101439.14;;;4.44;100.00
70971;BME280;58632;51.718;19.446;2023-02-14T09:23:03;101439.70;;;4.48;100.00
70971;BME280;58632;51.718;19.446;2023-02-14T09:25:29;101440.36;;;4.52;100.00
70971;BME280;58632;51.718;19.446;2023-02-14T09:27:54;101444.27;;;4.54;100.00
70971;BME280;58632;51.718;19.446;2023-02-14T09:30:20;101445.59;;;4.55;100.00
70971;BME280;58632;51.718;19.446;2023-02-14T09:32:46;101443.46;;;4.57;100.00
70971;BME280;58632;51.718;19.446;2023-02-14T09:35:11;101446.94;;;4.57;100.00
70971;BME280;58632;51.718;19.446;2023-02-14T09:37:37;101446.64;;;4.59;100.00
70971;BME280;58632;51.718;19.446;2023-02-14T09:40:21;101449.40;;;4.59;100.00
70971;BME280;58632;51.718;19.446;2023-02-14T09:42:48;101449.17;;;4.63;100.00
70971;BME280;58632;51.718;19.446;2023-02-14T09:45:16;101449.24;;;4.70;100.00
70971;BME280;58632;51.718;19.446;2023-02-14T09:47:45;101456.91;;;4.71;100.00
70971;BME280;58632;51.718;19.446;2023-02-14T09:50:18;101458.54;;;4.76;100.00
70971;BME280;58632;51.718;19.446;2023-02-14T09:52:45;101455.33;;;4.82;100.00
70971;BME280;58632;51.718;19.446;2023-02-14T09:55:14;101451.74;;;4.87;100.00
70971;BME280;58632;51.718;19.446;2023-02-14T09:57:42;101453.23;;;4.89;100.00
70971;BME280;58632;51.718;19.446;2023-02-14T10:00:12;101458.13;;;4.95;100.00
70971;BME280;58632;51.718;19.446;2023-02-14T10:02:52;101453.69;;;5.02;100.00
70971;BME280;58632;51.718;19.446;2023-02-14T10:10:23;101450.36;;;5.04;100.00
70971;BME280;58632;51.718;19.446;2023-02-14T10:13:01;101448.83;;;5.07;100.00
70971;BME280;58632;51.718;19.446;2023-02-14T10:15:29;101448.94;;;5.09;100.00
70971;BME280;58632;51.718;19.446;2023-02-14T10:17:57;101450.67;;;5.14;100.00
70971;BME280;58632;51.718;19.446;2023-02-14T10:20:26;101450.05;;;5.20;100.00
70971;BME280;58632;51.718;19.446;2023-02-14T10:25:28;101442.41;;;5.42;100.00
70971;BME280;58632;51.718;19.446;2023-02-14T10:27:55;101447.09;;;5.52;100.00
70971;BME280;58632;51.718;19.446;2023-02-14T10:30:22;101445.55;;;5.55;100.00
70971;BME280;58632;51.718;19.446;2023-02-14T10:33:10;101442.56;;;5.55;100.00
70971;BME280;58632;51.718;19.446;2023-02-14T10:38:14;101434.64;;;5.63;100.00
70971;BME280;58632;51.718;19.446;2023-02-14T10:43:20;101429.74;;;5.92;100.00
70971;BME280;58632;51.718;19.446;2023-02-14T10:53:31;101435.70;;;5.93;100.00
70971;BME280;58632;51.718;19.446;2023-02-14T10:56:02;101442.37;;;5.85;100.00
70971;BME280;58632;51.718;19.446;2023-02-14T10:58:31;101446.36;;;5.76;100.00
70971;BME280;58632;51.718;19.446;2023-02-14T11:03:26;101439.71;;;5.75;100.00
70971;BME280;58632;51.718;19.446;2023-02-14T11:05:51;101436.73;;;5.75;100.00
70971;BME280;58632;51.718;19.446;2023-02-14T11:10:43;101439.98;;;5.90;100.00
70971;BME280;58632;51.718;19.446;2023-02-14T11:13:29;101432.14;;;5.95;100.00
70971;BME280;58632;51.718;19.446;2023-02-14T11:15:59;101427.00;;;5.90;100.00
70971;BME280;58632;51.718;19.446;2023-02-14T11:18:25;101427.46;;;5.81;100.00
70971;BME280;58632;51.718;19.446;2023-02-14T11:23:44;101425.94;;;5.77;100.00
70971;BME280;58632;51.718;19.446;2023-02-14T11:26:31;101424.59;;;5.81;100.00
70971;BME280;58632;51.718;19.446;2023-02-14T11:29:18;101423.00;;;5.88;100.00
70971;BME280;58632;51.718;19.446;2023-02-14T11:31:41;101418.19;;;5.87;100.00
70971;BME280;58632;51.718;19.446;2023-02-14T11:34:19;101415.27;;;5.87;100.00
70971;BME280;58632;51.718;19.446;2023-02-14T11:36:45;101416.53;;;5.85;100.00
70971;BME280;58632;51.718;19.446;2023-02-14T11:41:50;101412.84;;;5.85;100.00
70971;BME280;58632;51.718;19.446;2023-02-14T11:44:17;101409.98;;;5.84;100.00
70971;BME280;58632;51.718;19.446;2023-02-14T11:46:47;101411.60;;;5.86;100.00
70971;BME280;58632;51.718;19.446;2023-02-14T11:49:21;101412.81;;;5.91;100.00
70971;BME280;58632;51.718;19.446;2023-02-14T11:51:48;101412.27;;;5.97;100.00
70971;BME280;58632;51.718;19.446;2023-02-14T11:54:31;101407.48;;;5.97;100.00
70971;BME280;58632;51.718;19.446;2023-02-14T11:57:11;101410.61;;;5.99;100.00
70971;BME280;58632;51.718;19.446;2023-02-14T11:59:41;101407.40;;;5.94;100.00
70971;BME280;58632;51.718;19.446;2023-02-14T12:04:43;101404.77;;;5.96;100.00
70971;BME280;58632;51.718;19.446;2023-02-14T12:07:13;101399.06;;;6.02;100.00
70971;BME280;58632;51.718;19.446;2023-02-14T12:09:39;101395.37;;;6.02;100.00
70971;BME280;58632;51.718;19.446;2023-02-14T12:12:14;101397.11;;;5.95;100.00
70971;BME280;58632;51.718;19.446;2023-02-14T12:14:40;101402.77;;;5.84;100.00
70971;BME280;58632;51.718;19.446;2023-02-14T12:17:11;101398.22;;;5.82;100.00
70971;BME280;58632;51.718;19.446;2023-02-14T12:22:05;101396.82;;;5.91;100.00
70971;BME280;58632;51.718;19.446;2023-02-14T12:24:40;101393.77;;;5.85;100.00
70971;BME280;58632;51.718;19.446;2023-02-14T12:27:20;101392.09;;;5.82;100.00
70971;BME280;58632;51.718;19.446;2023-02-14T12:32:19;101391.11;;;5.78;100.00
70971;BME280;58632;51.718;19.446;2023-02-14T12:34:46;101392.67;;;5.66;100.00
70971;BME280;58632;51.718;19.446;2023-02-14T12:58:23;101378.20;;;5.65;100.00
70971;BME280;58632;51.718;19.446;2023-02-14T13:03:26;101375.98;;;5.69;100.00
70971;BME280;58632;51.718;19.446;2023-02-14T13:06:03;101377.27;;;5.64;100.00
70971;BME280;58632;51.718;19.446;2023-02-14T13:16:17;101369.90;;;5.58;100.00
70971;BME280;58632;51.718;19.446;2023-02-14T13:18:48;101374.27;;;5.57;100.00
70971;BME280;58632;51.718;19.446;2023-02-14T13:21:19;101372.66;;;5.50;100.00
70971;BME280;58632;51.718;19.446;2023-02-14T13:23:46;101372.60;;;5.46;100.00
70971;BME280;58632;51.718;19.446;2023-02-14T13:26:16;101377.77;;;5.40;100.00
70971;BME280;58632;51.718;19.446;2023-02-14T13:28:44;101381.41;;;5.40;100.00
70971;BME280;58632;51.718;19.446;2023-02-14T13:31:11;101382.45;;;5.39;100.00
70971;BME280;58632;51.718;19.446;2023-02-14T13:33:40;101384.10;;;5.38;100.00
70971;BME280;58632;51.718;19.446;2023-02-14T13:36:09;101380.03;;;5.34;100.00
70971;BME280;58632;51.718;19.446;2023-02-14T13:38:37;101384.90;;;5.33;100.00
70971;BME280;58632;51.718;19.446;2023-02-14T13:41:06;101381.33;;;5.37;100.00
70971;BME280;58632;51.718;19.446;2023-02-14T13:46:10;101379.21;;;5.38;100.00
70971;BME280;58632;51.718;19.446;2023-02-14T13:48:36;101375.45;;;5.38;100.00
70971;BME280;58632;51.718;19.446;2023-02-14T13:55:58;101371.42;;;5.29;100.00
70971;BME280;58632;51.718;19.446;2023-02-14T13:58:24;101370.15;;;5.24;100.00
70971;BME280;58632;51.718;19.446;2023-02-14T14:00:50;101370.95;;;5.23;100.00
70971;BME280;58632;51.718;19.446;2023-02-14T14:10:49;101373.27;;;5.08;100.00
70971;BME280;58632;51.718;19.446;2023-02-14T14:16:18;101375.54;;;5.01;100.00
70971;BME280;58632;51.718;19.446;2023-02-14T14:18:44;101383.56;;;4.85;100.00
70971;BME280;58632;51.718;19.446;2023-02-14T14:21:26;101381.71;;;4.73;100.00
70971;BME280;58632;51.718;19.446;2023-02-14T14:24:01;101373.21;;;4.64;100.00
70971;BME280;58632;51.718;19.446;2023-02-14T14:26:32;101381.65;;;4.63;100.00
70971;BME280;58632;51.718;19.446;2023-02-14T14:28:59;101380.85;;;4.61;100.00
70971;BME280;58632;51.718;19.446;2023-02-14T14:31:26;101377.33;;;4.63;100.00
70971;BME280;58632;51.718;19.446;2023-02-14T14:33:58;101380.06;;;4.59;100.00
70971;BME280;58632;51.718;19.446;2023-02-14T14:36:24;101382.67;;;4.52;100.00
70971;BME280;58632;51.718;19.446;2023-02-14T14:38:50;101379.55;;;4.46;100.00
70971;BME280;58632;51.718;19.446;2023-02-14T14:41:19;101381.45;;;4.43;100.00
70971;BME280;58632;51.718;19.446;2023-02-14T14:43:45;101382.95;;;4.40;100.00
70971;BME280;58632;51.718;19.446;2023-02-14T14:46:11;101383.79;;;4.35;100.00
70971;BME280;58632;51.718;19.446;2023-02-14T14:48:38;101382.44;;;4.30;100.00
70971;BME280;58632;51.718;19.446;2023-02-14T14:51:05;101383.36;;;4.28;100.00
70971;BME280;58632;51.718;19.446;2023-02-14T14:53:44;101381.69;;;4.22;100.00
70971;BME280;58632;51.718;19.446;2023-02-14T14:56:17;101379.02;;;4.16;100.00
70971;BME280;58632;51.718;19.446;2023-02-14T14:58:43;101383.89;;;4.10;100.00
70971;BME280;58632;51.718;19.446;2023-02-14T15:01:10;101383.30;;;4.06;100.00
70971;BME280;58632;51.718;19.446;2023-02-14T15:03:37;101379.67;;;4.06;100.00
70971;BME280;58632;51.718;19.446;2023-02-14T15:08:31;101377.91;;;4.00;100.00